Sedan, Minnesota
Current Conditions -  °F | °C
As of 12:13 PM on Tuesday 21 Oct 2014 (Local Time) from KGHW Reporting Station
Clear Clear  
Wind Chill: 55°   Ceiling: Unl
Heat Index: 55°   Visibility: 10mi
Dew Point: 43°   Wind: 17mph
Humidity: 63%   Direction: 130°SE
Pressure: 30.11"   Gusts: 22mph
Location:  45.6105°N, 95.373°W
Report Text: KGHW 211713Z AUTO 13015G19KT 10SM CLR 13/06 A3011 RMK AO2
Loading
Personal Weather Stations






























Interactive Weather Map
Tropical Storm Tracking
New forecast layout! Learn more

10-Day Weather Forecast

Advertisements
Track Severe Weather on mobile